Kahului Airport (OGG)

 

Airport Diagram
Current Weather/Forecast (VFR Conditions)
METAR PHOG 220754Z 21005KT 10SM CLR 24/18 A2994 RMK AO2 SLP145 T02390183
TAF PHOG 220520Z 2206/2306 VRB05KT P6SM FEW025 FEW050 FM222100 02009KT P6SM FEW030 SCT050 FM230400 VRB05KT P6SM FEW025 FEW050 AMD LTD TO VIS AND WIND 2209/2216

All Charts

Inbound Traffic (Arrivals)

No inbound traffic.


Outbound Traffic (Departures)

No outbound traffic.